createdAt,value
2022-11-16T00:00:04.409Z,20.3
2022-11-16T00:04:59.761Z,19.1
2022-11-16T00:23:58.366Z,14.2
2022-11-16T00:28:22.290Z,14.2
2022-11-16T00:43:30.336Z,14.1
2022-11-16T00:48:15.727Z,14.1
2022-11-16T00:53:15.694Z,13.9
2022-11-16T00:58:15.716Z,13.9
2022-11-16T01:03:15.695Z,13.3
2022-11-16T01:08:15.708Z,12.9
2022-11-16T01:13:15.812Z,12.8
2022-11-16T01:18:16.395Z,12.8
2022-11-16T01:23:15.875Z,12.8
2022-11-16T01:28:15.946Z,12.8
2022-11-16T01:33:16.153Z,15.3
2022-11-16T01:38:15.895Z,17.2
2022-11-16T01:43:15.809Z,17.7
2022-11-16T01:48:15.984Z,17.7
2022-11-16T01:53:15.766Z,18.2
2022-11-16T01:58:15.773Z,18.3
2022-11-16T02:03:15.812Z,18.7
2022-11-16T02:08:15.807Z,19.9
2022-11-16T02:13:15.799Z,20
2022-11-16T02:18:15.705Z,20.3
2022-11-16T02:23:15.730Z,20.5
2022-11-16T02:28:15.705Z,21
2022-11-16T02:33:15.691Z,21.1
2022-11-16T02:38:15.704Z,21.1
2022-11-16T02:43:15.696Z,21.9
2022-11-16T02:48:15.713Z,23.6
2022-11-16T02:53:15.744Z,24.3
2022-11-16T02:58:15.725Z,24.3
2022-11-16T03:03:15.723Z,24.4
2022-11-16T03:08:15.710Z,24.7
2022-11-16T03:13:15.828Z,24.9
2022-11-16T03:18:15.769Z,24.9
2022-11-16T03:23:15.744Z,24.9
2022-11-16T03:28:15.686Z,25.4
2022-11-16T03:33:15.735Z,25.4
2022-11-16T03:38:15.751Z,24.9
2022-11-16T03:43:15.683Z,24.7
2022-11-16T03:48:15.796Z,24.7
2022-11-16T03:53:15.750Z,24.4
2022-11-16T03:58:15.846Z,24.4
2022-11-16T04:03:15.818Z,24.4
2022-11-16T04:08:15.808Z,24.4
2022-11-16T04:13:16.036Z,25.1
2022-11-16T04:18:15.760Z,25.1
2022-11-16T04:23:15.764Z,24.4
2022-11-16T04:28:15.739Z,25.1
2022-11-16T04:33:15.748Z,24.1
2022-11-16T04:38:15.754Z,24.1
2022-11-16T04:43:15.757Z,24.1
2022-11-16T04:48:15.812Z,24.1
2022-11-16T04:53:15.792Z,24.1
2022-11-16T04:58:15.744Z,24.3
2022-11-16T05:03:15.838Z,24.3
2022-11-16T05:08:15.699Z,24.8
2022-11-16T05:13:16.598Z,24.8
2022-11-16T05:18:15.808Z,25
2022-11-16T05:23:15.797Z,25.3
2022-11-16T05:33:32.697Z,27.6
2022-11-16T05:38:15.842Z,27.65
2022-11-16T05:43:15.899Z,27.6
2022-11-16T05:48:34.333Z,27.5
2022-11-16T05:53:15.834Z,27.4
2022-11-16T05:58:15.782Z,27.35
2022-11-16T06:03:15.940Z,27.4
2022-11-16T06:08:16.057Z,27.4
2022-11-16T06:13:15.794Z,27.3
2022-11-16T06:18:35.768Z,27.3
2022-11-16T06:23:15.861Z,27.3
2022-11-16T06:28:15.760Z,27.3
2022-11-16T06:33:34.732Z,27.3
2022-11-16T06:38:16.296Z,27.3
2022-11-16T06:43:15.767Z,27.1
2022-11-16T06:48:36.004Z,26.9
2022-11-16T06:53:15.820Z,26.9
2022-11-16T06:58:16.128Z,26.9
2022-11-16T07:03:25.847Z,26.9
2022-11-16T07:08:15.791Z,27
2022-11-16T07:13:15.742Z,27
2022-11-16T07:18:23.979Z,27
2022-11-16T07:23:15.853Z,27
2022-11-16T07:28:15.736Z,26.8
2022-11-16T07:33:32.599Z,26.7
2022-11-16T07:38:18.871Z,25.3
2022-11-16T07:43:15.958Z,25
2022-11-16T07:53:15.801Z,24
2022-11-16T07:58:15.831Z,23.6
2022-11-16T08:03:25.169Z,23.6
2022-11-16T08:08:15.951Z,23.6
2022-11-16T08:13:15.905Z,23.6
2022-11-16T08:18:27.062Z,24.2
2022-11-16T08:23:15.877Z,27.3
2022-11-16T08:28:16.084Z,27.3
2022-11-16T08:34:11.982Z,27.5
2022-11-16T08:53:16.212Z,25.6
2022-11-16T08:58:18.351Z,25.2
2022-11-16T09:03:18.671Z,25.6
2022-11-16T09:08:17.007Z,25.6
2022-11-16T09:13:16.442Z,25.6
2022-11-16T09:18:16.540Z,25.9
2022-11-16T09:23:25.639Z,25.7
2022-11-16T09:28:20.382Z,25.7
2022-11-16T09:33:17.182Z,25.7
2022-11-16T09:38:34.809Z,25.6
2022-11-16T09:43:34.151Z,24.8
2022-11-16T09:48:16.031Z,24.8
2022-11-16T09:53:16.492Z,24.8
2022-11-16T09:58:16.416Z,24.4
2022-11-16T10:03:16.266Z,24.3
2022-11-16T10:08:16.138Z,22.4
2022-11-16T10:13:17.363Z,22
2022-11-16T10:18:16.307Z,21.7
2022-11-16T10:23:16.022Z,20.8
2022-11-16T10:28:16.110Z,19.8
2022-11-16T10:33:16.367Z,19.3
2022-11-16T10:38:16.216Z,19.1
2022-11-16T10:43:33.426Z,18.9
2022-11-16T10:48:16.305Z,17.9
2022-11-16T10:53:16.103Z,17.1
2022-11-16T10:58:16.471Z,15.9
2022-11-16T11:03:16.151Z,15.4
2022-11-16T11:08:16.390Z,14.9
2022-11-16T11:13:17.111Z,14.9
2022-11-16T11:18:16.183Z,14.9
2022-11-16T11:23:16.213Z,14.9
2022-11-16T11:28:16.123Z,14.9
2022-11-16T11:33:16.089Z,14.6
2022-11-16T11:38:16.087Z,15.2
2022-11-16T11:43:31.562Z,15.2
2022-11-16T11:48:16.120Z,14.8
2022-11-16T11:53:16.166Z,14.6
2022-11-16T11:58:16.125Z,14.6
2022-11-16T12:03:16.522Z,11.4
2022-11-16T12:08:19.077Z,11
2022-11-16T12:13:16.716Z,10.4
2022-11-16T12:18:17.368Z,9
2022-11-16T12:23:16.155Z,8
2022-11-16T12:28:16.499Z,7.4
2022-11-16T12:33:18.803Z,7.4
2022-11-16T12:38:25.999Z,7.4
2022-11-16T12:43:32.988Z,7.6
2022-11-16T12:48:16.627Z,7.6
2022-11-16T12:53:16.161Z,8.3
2022-11-16T12:58:17.286Z,8.4
2022-11-16T13:03:16.235Z,8.5
2022-11-16T13:08:16.263Z,8.5
2022-11-16T13:13:37.069Z,9.2
2022-11-16T13:18:16.834Z,9.4
2022-11-16T13:23:16.785Z,9.4
2022-11-16T13:28:19.321Z,9.4
2022-11-16T13:34:04.883Z,9.5
2022-11-16T13:38:17.076Z,9.5
2022-11-16T13:43:42.446Z,9.5
2022-11-16T13:48:16.294Z,9.1
2022-11-16T13:54:17.821Z,7.8
2022-11-16T13:58:17.278Z,7.2
2022-11-16T14:03:23.031Z,6.3
2022-11-16T14:08:16.197Z,6.3
2022-11-16T14:13:16.309Z,6.3
2022-11-16T14:18:17.073Z,6.3
2022-11-16T14:23:16.321Z,6.5
2022-11-16T14:28:16.272Z,6.5
2022-11-16T14:33:16.971Z,6.9
2022-11-16T14:38:17.069Z,7.1
2022-11-16T14:43:30.892Z,7.4
2022-11-16T14:48:17.712Z,7.6
2022-11-16T14:53:18.364Z,8.3
2022-11-16T14:58:16.937Z,8.3
2022-11-16T15:03:18.017Z,8.3
2022-11-16T15:08:17.240Z,8.3
2022-11-16T15:13:16.362Z,7
2022-11-16T15:18:56.584Z,6.7
2022-11-16T15:23:23.822Z,6.7
2022-11-16T15:28:16.737Z,6.7
2022-11-16T15:33:24.512Z,6.7
2022-11-16T15:38:25.413Z,7
2022-11-16T15:44:01.660Z,7.1
2022-11-16T15:48:40.229Z,7.3
2022-11-16T15:53:16.425Z,8
2022-11-16T15:58:18.315Z,8
2022-11-16T16:03:52.094Z,8
2022-11-16T16:08:28.605Z,8
2022-11-16T16:13:18.235Z,8
2022-11-16T16:18:36.189Z,8
2022-11-16T16:23:16.294Z,8
2022-11-16T16:28:20.925Z,8
2022-11-16T16:38:25.038Z,20.9
2022-11-16T16:44:22.801Z,23.3
2022-11-16T16:49:12.990Z,23.3
2022-11-16T16:54:14.437Z,20.9
2022-11-16T17:18:41.746Z,17
2022-11-16T18:58:49.641Z,15.2
2022-11-16T19:03:19.980Z,15.8
2022-11-16T19:08:22.963Z,16
2022-11-16T19:13:32.831Z,15.65
2022-11-16T19:18:22.933Z,15.3
2022-11-16T19:23:25.694Z,18.3
2022-11-16T19:28:19.907Z,25.55
2022-11-16T19:33:19.910Z,32.8
2022-11-16T19:38:19.909Z,42.2
2022-11-16T19:43:19.969Z,51.6
2022-11-16T19:48:19.849Z,203.9
2022-11-16T19:53:20.754Z,62.9
2022-11-16T19:58:20.957Z,62.9
2022-11-16T20:03:20.237Z,62.9
2022-11-16T20:08:20.187Z,51.6
2022-11-16T20:13:20.356Z,21.8
2022-11-16T20:18:20.539Z,20.8
2022-11-16T20:23:21.605Z,20.2
2022-11-16T20:28:21.801Z,19.7
2022-11-16T20:33:19.998Z,19.5
2022-11-16T20:38:20.225Z,19.4
2022-11-16T20:43:19.891Z,19.4
2022-11-16T20:48:19.840Z,19.4
2022-11-16T20:53:19.961Z,19.5
2022-11-16T20:58:24.131Z,23.4
2022-11-16T21:03:19.865Z,23.7
2022-11-16T21:08:19.866Z,30.5
2022-11-16T21:13:19.883Z,38.8
2022-11-16T21:18:19.890Z,130.5
2022-11-16T21:23:19.964Z,130.5
2022-11-16T21:28:25.890Z,130.5
2022-11-16T21:33:19.836Z,38.8
2022-11-16T21:38:20.236Z,32.1
2022-11-16T21:43:19.858Z,21.7
2022-11-16T21:48:19.865Z,21.5
2022-11-16T21:53:19.936Z,21.5
2022-11-16T21:58:20.011Z,21.5
2022-11-16T22:03:19.990Z,21.5
2022-11-16T22:08:20.059Z,21.5
2022-11-16T22:13:20.000Z,21.5
2022-11-16T22:18:19.961Z,21.5
2022-11-16T22:23:24.137Z,23.2
2022-11-16T22:28:22.892Z,23.2
2022-11-16T22:33:19.961Z,23.2
2022-11-16T22:38:19.896Z,23.4
2022-11-16T22:43:19.955Z,23.5
2022-11-16T22:48:19.923Z,25.2
2022-11-16T22:53:19.967Z,25.5
2022-11-16T22:58:19.872Z,25.6
2022-11-16T23:03:19.902Z,25.7
2022-11-16T23:08:19.983Z,25.7
2022-11-16T23:13:19.874Z,25.7
2022-11-16T23:18:19.840Z,25.8
2022-11-16T23:23:19.940Z,26.1
2022-11-16T23:28:19.903Z,26.1
2022-11-16T23:33:19.888Z,25.9
2022-11-16T23:38:20.142Z,25.6
2022-11-16T23:43:19.921Z,25.6
2022-11-16T23:48:19.896Z,25.6
2022-11-16T23:53:19.897Z,25.4
2022-11-16T23:58:19.948Z,24.5
